createdAt,value
2023-04-11T00:01:02.929Z,3.55
2023-04-11T00:03:30.482Z,3.42
2023-04-11T00:05:57.968Z,3.13
2023-04-11T00:08:25.725Z,3.60
2023-04-11T00:10:53.075Z,3.20
2023-04-11T00:13:20.422Z,3.30
2023-04-11T00:15:48.032Z,2.90
2023-04-11T00:18:15.580Z,3.13
2023-04-11T00:20:42.897Z,2.80
2023-04-11T00:23:10.292Z,3.15
2023-04-11T00:25:37.690Z,2.90
2023-04-11T00:28:05.033Z,2.80
2023-04-11T00:30:32.464Z,3.10
2023-04-11T00:32:59.917Z,3.10
2023-04-11T00:35:27.338Z,2.80
2023-04-11T00:37:56.419Z,3.08
2023-04-11T00:40:23.898Z,2.97
2023-04-11T00:42:51.311Z,2.97
2023-04-11T00:45:18.729Z,3.22
2023-04-11T00:47:46.261Z,3.17
2023-04-11T00:50:14.280Z,2.67
2023-04-11T00:52:41.886Z,2.78
2023-04-11T00:55:09.950Z,3.25
2023-04-11T00:57:38.028Z,2.67
2023-04-11T01:00:05.699Z,2.80
2023-04-11T01:02:33.686Z,2.47
2023-04-11T01:05:01.604Z,2.88
2023-04-11T01:07:30.852Z,2.53
2023-04-11T01:09:58.535Z,2.58
2023-04-11T01:12:26.307Z,2.45
2023-04-11T01:14:53.665Z,2.97
2023-04-11T01:17:22.098Z,2.90
2023-04-11T01:19:49.569Z,2.45
2023-04-11T01:22:18.297Z,2.50
2023-04-11T01:24:45.666Z,2.30
2023-04-11T01:27:13.116Z,2.92
2023-04-11T01:29:40.857Z,2.38
2023-04-11T01:32:08.333Z,2.53
2023-04-11T01:34:36.867Z,2.60
2023-04-11T01:37:04.359Z,2.28
2023-04-11T01:39:31.675Z,2.30
2023-04-11T01:41:59.797Z,2.50
2023-04-11T01:44:27.386Z,2.72
2023-04-11T01:46:54.806Z,3.30
2023-04-11T01:49:22.149Z,2.35
2023-04-11T01:51:49.522Z,2.50
2023-04-11T01:54:16.867Z,2.90
2023-04-11T01:56:44.316Z,2.30
2023-04-11T01:59:11.798Z,2.10
2023-04-11T02:01:39.252Z,2.25
2023-04-11T02:04:06.762Z,2.40
2023-04-11T02:06:34.272Z,2.03
2023-04-11T02:09:01.582Z,2.30
2023-04-11T02:11:29.010Z,1.90
2023-04-11T02:13:56.397Z,2.00
2023-04-11T02:16:26.076Z,1.75
2023-04-11T02:18:54.399Z,1.92
2023-04-11T02:21:22.223Z,1.80
2023-04-11T02:23:49.605Z,1.55
2023-04-11T02:26:16.943Z,1.73
2023-04-11T02:28:44.363Z,1.67
2023-04-11T02:31:11.767Z,1.77
2023-04-11T02:33:39.135Z,1.73
2023-04-11T02:36:06.629Z,1.60
2023-04-11T02:38:33.980Z,1.75
2023-04-11T02:41:01.382Z,1.50
2023-04-11T02:43:28.720Z,1.70
2023-04-11T02:46:05.522Z,1.77
2023-04-11T02:48:33.573Z,1.35
2023-04-11T02:51:00.895Z,1.90
2023-04-11T02:53:28.211Z,1.60
2023-04-11T02:55:55.808Z,1.65
2023-04-11T02:58:26.063Z,1.63
2023-04-11T03:00:53.503Z,1.52
2023-04-11T03:03:21.048Z,1.50
2023-04-11T03:05:48.472Z,1.83
2023-04-11T03:08:15.959Z,1.70
2023-04-11T03:10:43.361Z,1.60
2023-04-11T03:13:10.708Z,1.70
2023-04-11T03:15:38.088Z,1.85
2023-04-11T03:18:05.530Z,1.63
2023-04-11T03:20:32.882Z,1.67
2023-04-11T03:23:00.209Z,1.50
2023-04-11T03:25:28.380Z,2.05
2023-04-11T03:27:55.710Z,1.75
2023-04-11T03:30:23.029Z,1.60
2023-04-11T03:32:50.429Z,1.77
2023-04-11T03:35:18.922Z,1.60
2023-04-11T03:37:46.268Z,1.40
2023-04-11T03:40:13.968Z,1.77
2023-04-11T03:42:41.337Z,1.50
2023-04-11T03:45:09.361Z,1.50
2023-04-11T03:47:36.930Z,1.50
2023-04-11T03:50:04.306Z,1.48
2023-04-11T03:52:31.643Z,1.83
2023-04-11T03:54:58.979Z,1.55
2023-04-11T03:57:27.156Z,1.50
2023-04-11T03:59:54.897Z,1.48
2023-04-11T04:02:22.572Z,1.40
2023-04-11T04:04:58.851Z,1.50
2023-04-11T04:07:26.662Z,1.27
2023-04-11T04:09:54.287Z,1.40
2023-04-11T04:12:22.436Z,1.50
2023-04-11T04:14:49.793Z,1.17
2023-04-11T04:17:17.430Z,1.17
2023-04-11T04:19:44.864Z,1.33
2023-04-11T04:22:13.468Z,1.33
2023-04-11T04:24:42.289Z,1.45
2023-04-11T04:27:09.655Z,1.30
2023-04-11T04:29:46.519Z,1.98
2023-04-11T04:32:24.149Z,1.20
2023-04-11T04:34:55.670Z,0.95
2023-04-11T04:37:24.235Z,1.02
2023-04-11T04:39:54.361Z,1.13
2023-04-11T04:42:23.186Z,1.08
2023-04-11T04:44:50.990Z,0.98
2023-04-11T04:47:18.574Z,1.02
2023-04-11T04:49:46.329Z,1.30
2023-04-11T04:52:14.640Z,1.00
2023-04-11T04:54:42.163Z,1.13
2023-04-11T04:57:09.507Z,1.00
2023-04-11T04:59:36.887Z,1.08
2023-04-11T05:02:04.575Z,1.00
2023-04-11T05:04:34.536Z,0.98
2023-04-11T05:07:02.205Z,1.05
2023-04-11T05:09:29.688Z,1.02
2023-04-11T05:11:57.198Z,1.00
2023-04-11T05:14:24.530Z,1.00
2023-04-11T05:16:52.050Z,1.15
2023-04-11T05:19:19.418Z,1.10
2023-04-11T05:21:47.201Z,1.65
2023-04-11T05:24:14.518Z,1.30
2023-04-11T05:26:42.007Z,1.13
2023-04-11T05:29:09.471Z,1.20
2023-04-11T05:31:38.014Z,1.05
2023-04-11T05:34:05.362Z,1.15
2023-04-11T05:36:32.683Z,1.25
2023-04-11T05:39:00.146Z,1.00
2023-04-11T05:41:27.572Z,1.00
2023-04-11T05:43:55.228Z,1.05
2023-04-11T05:46:22.867Z,1.15
2023-04-11T05:48:50.255Z,1.35
2023-04-11T05:51:17.583Z,1.10
2023-04-11T05:53:45.134Z,1.48
2023-04-11T05:56:13.084Z,1.40
2023-04-11T05:58:40.668Z,1.85
2023-04-11T06:01:12.542Z,1.20
2023-04-11T06:03:40.061Z,1.00
2023-04-11T06:06:07.746Z,1.42
2023-04-11T06:08:35.086Z,1.17
2023-04-11T06:11:02.437Z,1.58
2023-04-11T06:13:29.838Z,1.33
2023-04-11T06:15:57.266Z,1.30
2023-04-11T06:18:24.615Z,1.52
2023-04-11T06:20:51.927Z,2.15
2023-04-11T06:23:19.325Z,1.20
2023-04-11T06:25:46.798Z,1.33
2023-04-11T06:28:14.177Z,1.60
2023-04-11T06:30:41.506Z,1.70
2023-04-11T06:33:08.886Z,1.30
2023-04-11T06:35:36.820Z,1.98
2023-04-11T06:38:04.217Z,1.55
2023-04-11T06:40:31.557Z,1.60
2023-04-11T06:43:00.398Z,1.92
2023-04-11T06:45:27.747Z,1.80
2023-04-11T06:47:55.201Z,2.50
2023-04-11T06:50:22.990Z,1.55
2023-04-11T06:52:50.406Z,2.08
2023-04-11T06:55:17.901Z,2.45
2023-04-11T06:57:45.473Z,2.08
2023-04-11T07:00:13.774Z,2.33
2023-04-11T07:02:41.708Z,2.42
2023-04-11T07:05:10.415Z,2.45
2023-04-11T07:07:37.931Z,2.67
2023-04-11T07:10:06.617Z,2.95
2023-04-11T07:12:33.937Z,2.65
2023-04-11T07:15:01.271Z,2.50
2023-04-11T07:17:28.591Z,3.38
2023-04-11T07:19:56.161Z,2.80
2023-04-11T07:22:24.223Z,2.85
2023-04-11T07:24:55.452Z,2.50
2023-04-11T07:27:23.624Z,2.47
2023-04-11T07:29:51.261Z,2.45
2023-04-11T07:32:18.628Z,2.42
2023-04-11T07:34:46.168Z,2.42
2023-04-11T07:37:13.540Z,2.35
2023-04-11T07:39:41.133Z,2.60
2023-04-11T07:42:08.824Z,2.40
2023-04-11T07:44:36.310Z,0.90
2023-04-11T07:47:03.711Z,1.92
2023-04-11T07:49:31.487Z,0.68
2023-04-11T07:51:58.883Z,0.68
2023-04-11T07:54:28.602Z,0.60
2023-04-11T07:56:57.272Z,0.60
2023-04-11T07:59:25.092Z,0.85
2023-04-11T08:01:59.749Z,1.05
2023-04-11T08:04:27.385Z,1.00
2023-04-11T08:06:57.005Z,1.08
2023-04-11T08:09:24.576Z,1.25
2023-04-11T08:11:51.952Z,1.40
2023-04-11T08:14:19.484Z,1.10
2023-04-11T08:16:46.959Z,1.52
2023-04-11T08:19:14.296Z,1.50
2023-04-11T08:21:42.004Z,1.60
2023-04-11T08:24:09.557Z,1.88
2023-04-11T08:26:36.926Z,1.92
2023-04-11T08:29:04.327Z,3.40
2023-04-11T08:31:32.581Z,2.90
2023-04-11T08:34:01.372Z,2.80
2023-04-11T08:36:29.129Z,2.72
2023-04-11T08:38:57.114Z,3.50
2023-04-11T08:41:24.437Z,1.55
2023-04-11T08:43:52.629Z,1.20
2023-04-11T08:46:20.201Z,1.20
2023-04-11T08:48:47.645Z,1.17
2023-04-11T08:51:15.018Z,1.13
2023-04-11T08:53:42.405Z,1.02
2023-04-11T08:56:15.188Z,1.50
2023-04-11T08:58:43.736Z,1.13
2023-04-11T09:01:32.196Z,1.58
2023-04-11T09:04:07.189Z,1.48
2023-04-11T09:06:34.594Z,1.73
2023-04-11T09:09:09.886Z,1.65
2023-04-11T09:14:11.441Z,2.70
2023-04-11T09:16:53.844Z,1.60
2023-04-11T09:19:25.432Z,1.70
2023-04-11T09:21:54.089Z,1.45
2023-04-11T09:24:22.417Z,1.67
2023-04-11T09:26:49.968Z,1.42
2023-04-11T09:29:36.918Z,2.00
2023-04-11T09:32:04.381Z,1.67
2023-04-11T09:34:32.018Z,1.50
2023-04-11T09:36:59.670Z,1.98
2023-04-11T09:39:29.604Z,1.90
2023-04-11T09:41:57.571Z,2.97
2023-04-11T09:44:37.786Z,1.90
2023-04-11T09:47:05.413Z,2.03
2023-04-11T09:49:34.357Z,2.03
2023-04-11T09:52:02.248Z,2.70
2023-04-11T09:54:29.842Z,2.70
2023-04-11T09:56:58.086Z,3.10
2023-04-11T09:59:26.202Z,2.97
2023-04-11T10:01:54.214Z,3.45
2023-04-11T10:04:23.007Z,3.15
2023-04-11T10:07:02.279Z,3.53
2023-04-11T10:09:30.217Z,3.28
2023-04-11T10:11:57.635Z,3.70
2023-04-11T10:14:41.881Z,3.33
2023-04-11T10:17:18.636Z,3.65
2023-04-11T10:19:49.403Z,4.50
2023-04-11T10:22:39.528Z,3.17
2023-04-11T10:25:17.144Z,3.47
2023-04-11T10:28:13.911Z,3.45
2023-04-11T10:30:41.196Z,3.40
2023-04-11T10:33:21.523Z,3.15
2023-04-11T10:35:58.984Z,2.88
2023-04-11T10:38:47.345Z,3.08
2023-04-11T10:41:25.278Z,2.58
2023-04-11T10:43:53.086Z,3.03
2023-04-11T10:46:21.619Z,2.83
2023-04-11T10:48:59.260Z,2.53
2023-04-11T10:51:27.003Z,2.70
2023-04-11T10:53:55.841Z,2.30
2023-04-11T10:56:42.009Z,1.90
2023-04-11T10:59:29.285Z,2.00
2023-04-11T11:01:56.842Z,2.22
2023-04-11T11:04:34.184Z,2.22
2023-04-11T11:07:04.327Z,2.33
2023-04-11T11:09:32.108Z,2.55
2023-04-11T11:12:15.967Z,2.53
2023-04-11T11:14:44.366Z,2.60
2023-04-11T11:17:15.580Z,2.67
2023-04-11T11:19:46.708Z,1.95
2023-04-11T11:22:26.166Z,2.40
2023-04-11T11:24:53.771Z,2.13
2023-04-11T11:27:24.675Z,1.90
2023-04-11T11:29:53.135Z,1.50
2023-04-11T11:32:33.501Z,1.27
2023-04-11T11:35:00.982Z,1.80
2023-04-11T11:37:28.336Z,1.30
2023-04-11T11:39:56.016Z,1.30
2023-04-11T11:42:23.404Z,1.27
2023-04-11T11:44:50.772Z,1.30
2023-04-11T11:47:18.264Z,2.55
2023-04-11T11:49:46.019Z,1.83
2023-04-11T11:52:13.691Z,2.78
2023-04-11T11:54:44.646Z,1.55
2023-04-11T11:57:11.980Z,1.60
2023-04-11T11:59:39.437Z,1.35
2023-04-11T12:02:06.987Z,1.92
2023-04-11T12:04:34.761Z,1.85
2023-04-11T12:07:08.953Z,1.63
2023-04-11T12:09:36.407Z,2.42
2023-04-11T12:12:03.822Z,2.20
2023-04-11T12:14:31.128Z,1.95
2023-04-11T12:16:58.538Z,1.98
2023-04-11T12:19:25.866Z,1.52
2023-04-11T12:21:53.409Z,1.73
2023-04-11T12:24:20.747Z,1.45
2023-04-11T12:27:05.589Z,1.80
2023-04-11T12:29:33.344Z,2.20
2023-04-11T12:32:00.803Z,1.25
2023-04-11T12:34:28.145Z,1.35
2023-04-11T12:36:55.508Z,1.52
2023-04-11T12:39:23.044Z,1.70
2023-04-11T12:41:50.350Z,1.17
2023-04-11T12:44:17.899Z,1.30
2023-04-11T12:46:45.368Z,1.63
2023-04-11T12:49:12.834Z,1.02
2023-04-11T12:51:40.183Z,1.70
2023-04-11T12:54:07.605Z,2.00
2023-04-11T12:56:34.957Z,1.73
2023-04-11T12:59:02.297Z,2.40
2023-04-11T13:01:29.687Z,2.40
2023-04-11T13:03:57.264Z,2.35
2023-04-11T13:06:24.904Z,1.95
2023-04-11T13:08:52.853Z,1.73
2023-04-11T13:11:20.272Z,2.08
2023-04-11T13:13:48.526Z,1.83
2023-04-11T13:16:16.197Z,1.92
2023-04-11T13:18:43.599Z,2.65
2023-04-11T13:21:11.053Z,2.33
2023-04-11T13:23:38.463Z,2.08
2023-04-11T13:26:07.198Z,2.08
2023-04-11T13:28:35.172Z,2.10
2023-04-11T13:31:02.495Z,2.35
2023-04-11T13:33:29.830Z,2.08
2023-04-11T13:35:57.269Z,2.50
2023-04-11T13:38:25.811Z,2.33
2023-04-11T13:40:53.173Z,2.03
2023-04-11T13:43:20.653Z,2.22
2023-04-11T13:45:47.979Z,2.35
2023-04-11T13:48:15.890Z,2.40
2023-04-11T13:50:43.301Z,2.45
2023-04-11T13:53:10.837Z,2.20
2023-04-11T13:55:38.189Z,2.33
2023-04-11T13:58:05.694Z,2.72
2023-04-11T14:00:36.369Z,2.40
2023-04-11T14:03:04.062Z,2.03
2023-04-11T14:05:35.072Z,2.38
2023-04-11T14:08:03.098Z,2.50
2023-04-11T14:10:30.512Z,2.83
2023-04-11T14:12:57.813Z,1.73
2023-04-11T14:15:25.170Z,1.88
2023-04-11T14:17:52.505Z,1.80
2023-04-11T14:20:19.887Z,2.58
2023-04-11T14:22:47.271Z,1.73
2023-04-11T14:25:15.896Z,1.88
2023-04-11T14:27:43.469Z,1.90
2023-04-11T14:30:11.474Z,2.38
2023-04-11T14:32:38.855Z,2.22
2023-04-11T14:35:08.030Z,2.60
2023-04-11T14:37:35.546Z,2.92
2023-04-11T14:40:05.522Z,2.17
2023-04-11T14:42:33.016Z,2.15
2023-04-11T14:45:00.370Z,2.03
2023-04-11T14:47:27.753Z,2.05
2023-04-11T14:49:57.260Z,2.00
2023-04-11T14:52:24.599Z,2.00
2023-04-11T14:54:51.934Z,2.10
2023-04-11T14:57:19.256Z,2.22
2023-04-11T14:59:46.632Z,2.05
2023-04-11T15:02:14.244Z,1.75
2023-04-11T15:04:41.775Z,2.40
2023-04-11T15:07:09.197Z,1.95
2023-04-11T15:09:36.510Z,1.67
2023-04-11T15:12:03.839Z,1.80
2023-04-11T15:14:31.284Z,1.50
2023-04-11T15:16:58.652Z,1.52
2023-04-11T15:19:26.018Z,1.40
2023-04-11T15:21:53.326Z,1.73
2023-04-11T15:24:21.630Z,0.90
2023-04-11T15:26:48.957Z,1.00
2023-04-11T15:29:16.350Z,0.80
2023-04-11T15:31:43.925Z,0.80
2023-04-11T15:34:14.149Z,1.15
2023-04-11T15:36:42.706Z,0.70
2023-04-11T15:39:10.216Z,0.80
2023-04-11T15:41:37.861Z,0.90
2023-04-11T15:44:05.330Z,0.60
2023-04-11T15:46:32.761Z,0.63
2023-04-11T15:49:00.123Z,0.60
2023-04-11T15:51:27.458Z,0.63
2023-04-11T15:53:55.116Z,1.00
2023-04-11T15:56:22.727Z,1.63
2023-04-11T15:58:50.008Z,2.08
2023-04-11T16:01:23.978Z,1.48
2023-04-11T16:03:52.255Z,0.60
2023-04-11T16:06:20.200Z,0.85
2023-04-11T16:08:47.568Z,1.00
2023-04-11T16:11:14.977Z,1.40
2023-04-11T16:13:44.233Z,0.82
2023-04-11T16:16:11.723Z,1.00
2023-04-11T16:18:39.155Z,0.93
2023-04-11T16:21:13.477Z,0.98
2023-04-11T16:23:40.952Z,1.08
2023-04-11T16:26:08.252Z,1.13
2023-04-11T16:28:35.843Z,0.98
2023-04-11T16:31:03.426Z,0.80
2023-04-11T16:33:30.780Z,1.00
2023-04-11T16:35:58.230Z,0.90
2023-04-11T16:38:25.608Z,1.40
2023-04-11T16:40:52.929Z,1.50
2023-04-11T16:43:20.500Z,1.58
2023-04-11T16:45:47.879Z,3.03
2023-04-11T16:48:15.321Z,2.88
2023-04-11T16:50:42.707Z,2.53
2023-04-11T16:53:10.095Z,1.60
2023-04-11T16:55:37.448Z,2.13
2023-04-11T16:58:04.808Z,5.20
2023-04-11T17:00:32.145Z,1.80
2023-04-11T17:02:59.733Z,1.00
2023-04-11T17:05:27.578Z,3.38
2023-04-11T17:07:54.891Z,1.25
2023-04-11T17:10:22.290Z,0.80
2023-04-11T17:12:49.679Z,0.70
2023-04-11T17:15:17.281Z,0.93
2023-04-11T17:17:44.745Z,0.60
2023-04-11T17:20:12.408Z,0.98
2023-04-11T17:22:41.671Z,0.93
2023-04-11T17:25:10.295Z,1.10
2023-04-11T17:27:37.746Z,1.10
2023-04-11T17:30:05.766Z,1.25
2023-04-11T17:32:33.114Z,2.97
2023-04-11T17:35:01.559Z,0.88
2023-04-11T17:37:28.849Z,0.90
2023-04-11T17:39:56.168Z,0.98
2023-04-11T17:42:23.788Z,0.65
2023-04-11T17:44:51.173Z,1.10
2023-04-11T17:47:18.483Z,1.33
2023-04-11T17:49:46.270Z,1.27
2023-04-11T17:52:13.666Z,1.55
2023-04-11T17:54:41.019Z,1.30
2023-04-11T17:57:08.456Z,1.10
2023-04-11T17:59:35.844Z,1.48
2023-04-11T18:02:03.297Z,1.25
2023-04-11T18:04:30.752Z,1.42
2023-04-11T18:06:58.444Z,0.80
2023-04-11T18:09:28.222Z,0.68
2023-04-11T18:11:55.801Z,1.02
2023-04-11T18:14:23.096Z,1.15
2023-04-11T18:16:50.566Z,0.65
2023-04-11T18:19:17.899Z,0.52
2023-04-11T18:21:45.350Z,1.65
2023-04-11T18:24:12.710Z,0.85
2023-04-11T18:26:40.104Z,0.70
2023-04-11T18:29:07.411Z,0.80
2023-04-11T18:31:35.551Z,0.40
2023-04-11T18:34:03.907Z,0.60
2023-04-11T18:36:32.469Z,0.98
2023-04-11T18:38:59.811Z,0.75
2023-04-11T18:41:27.219Z,0.60
2023-04-11T18:43:54.648Z,0.75
2023-04-11T18:46:22.083Z,1.00
2023-04-11T18:48:49.462Z,1.02
2023-04-11T18:51:16.865Z,0.90
2023-04-11T18:53:45.060Z,0.85
2023-04-11T18:56:12.375Z,0.98
2023-04-11T18:58:45.585Z,0.88
2023-04-11T19:01:16.813Z,0.93
2023-04-11T19:03:46.080Z,0.90
2023-04-11T19:06:13.982Z,0.93
2023-04-11T19:08:41.787Z,0.93
2023-04-11T19:11:09.155Z,0.80
2023-04-11T19:13:36.492Z,0.90
2023-04-11T19:16:03.942Z,1.27
2023-04-11T19:18:31.535Z,0.98
2023-04-11T19:20:58.908Z,0.93
2023-04-11T19:23:26.506Z,1.10
2023-04-11T19:25:54.859Z,0.90
2023-04-11T19:28:22.208Z,1.02
2023-04-11T19:30:49.522Z,0.70
2023-04-11T19:33:16.861Z,1.00
2023-04-11T19:35:44.464Z,0.90
2023-04-11T19:38:12.711Z,0.88
2023-04-11T19:40:40.047Z,1.17
2023-04-11T19:43:07.882Z,0.90
2023-04-11T19:45:35.295Z,1.30
2023-04-11T19:48:02.897Z,1.50
2023-04-11T19:50:30.953Z,1.38
2023-04-11T19:52:58.490Z,1.20
2023-04-11T19:55:26.940Z,1.85
2023-04-11T19:57:54.625Z,2.00
2023-04-11T20:00:22.121Z,1.40
2023-04-11T20:02:49.642Z,1.00
2023-04-11T20:05:22.336Z,1.23
2023-04-11T20:07:49.721Z,1.35
2023-04-11T20:10:17.735Z,1.50
2023-04-11T20:12:45.214Z,1.20
2023-04-11T20:15:13.465Z,1.45
2023-04-11T20:17:41.147Z,1.52
2023-04-11T20:20:11.561Z,1.30
2023-04-11T20:22:40.481Z,2.00
2023-04-11T20:25:09.970Z,1.38
2023-04-11T20:27:37.417Z,1.35
2023-04-11T20:30:07.116Z,1.48
2023-04-11T20:32:34.498Z,1.35
2023-04-11T20:35:02.294Z,2.05
2023-04-11T20:37:35.342Z,1.42
2023-04-11T20:40:06.590Z,1.30
2023-04-11T20:42:35.458Z,1.42
2023-04-11T20:45:06.486Z,1.35
2023-04-11T20:47:34.291Z,1.80
2023-04-11T20:50:04.139Z,1.70
2023-04-11T20:52:32.848Z,1.60
2023-04-11T20:55:01.323Z,1.60
2023-04-11T20:57:31.698Z,1.83
2023-04-11T20:59:59.254Z,2.58
2023-04-11T21:02:27.040Z,2.55
2023-04-11T21:04:57.657Z,1.92
2023-04-11T21:07:25.061Z,2.05
2023-04-11T21:09:52.850Z,1.77
2023-04-11T21:12:20.210Z,1.77
2023-04-11T21:14:47.606Z,1.38
2023-04-11T21:17:14.961Z,2.13
2023-04-11T21:19:42.403Z,2.22
2023-04-11T21:22:09.840Z,1.52
2023-04-11T21:24:37.271Z,1.60
2023-04-11T21:27:04.673Z,1.65
2023-04-11T21:29:32.265Z,1.63
2023-04-11T21:31:59.744Z,1.80
2023-04-11T21:34:27.767Z,1.58
2023-04-11T21:36:55.195Z,1.50
2023-04-11T21:39:22.566Z,1.58
2023-04-11T21:41:49.979Z,1.17
2023-04-11T21:44:17.393Z,1.80
2023-04-11T21:46:45.065Z,1.63
2023-04-11T21:49:12.620Z,1.40
2023-04-11T21:51:39.978Z,1.38
2023-04-11T21:54:07.337Z,1.60
2023-04-11T21:56:34.707Z,1.50
2023-04-11T21:59:02.038Z,1.38
2023-04-11T22:01:29.585Z,1.50
2023-04-11T22:03:59.365Z,1.38
2023-04-11T22:06:30.454Z,1.60
2023-04-11T22:08:58.444Z,1.40
2023-04-11T22:11:26.423Z,1.50
2023-04-11T22:13:53.917Z,1.30
2023-04-11T22:16:26.531Z,1.63
2023-04-11T22:18:54.774Z,1.40
2023-04-11T22:21:22.111Z,2.13
2023-04-11T22:23:54.618Z,1.95
2023-04-11T22:26:26.904Z,1.30
2023-04-11T22:28:54.746Z,1.23
2023-04-11T22:31:22.385Z,1.50
2023-04-11T22:33:50.240Z,1.35
2023-04-11T22:36:17.908Z,1.70
2023-04-11T22:38:45.789Z,1.10
2023-04-11T22:41:19.242Z,1.33
2023-04-11T22:43:46.564Z,1.40
2023-04-11T22:46:13.969Z,1.65
2023-04-11T22:48:42.156Z,1.25
2023-04-11T22:51:09.554Z,1.52
2023-04-11T22:53:42.270Z,1.13
2023-04-11T22:56:11.193Z,1.42
2023-04-11T22:58:39.741Z,1.70
2023-04-11T23:01:07.669Z,1.40
2023-04-11T23:03:35.090Z,1.52
2023-04-11T23:06:02.494Z,1.27
2023-04-11T23:08:30.324Z,1.33
2023-04-11T23:10:57.710Z,1.08
2023-04-11T23:13:25.246Z,1.42
2023-04-11T23:15:52.864Z,1.30
2023-04-11T23:18:20.166Z,1.40
2023-04-11T23:20:50.983Z,1.50
2023-04-11T23:23:18.567Z,1.50
2023-04-11T23:25:45.931Z,1.48
2023-04-11T23:28:13.326Z,1.25
2023-04-11T23:30:40.764Z,1.30
2023-04-11T23:33:09.136Z,1.02
2023-04-11T23:35:37.263Z,1.10
2023-04-11T23:38:04.895Z,1.38
2023-04-11T23:40:32.995Z,1.40
2023-04-11T23:43:00.402Z,1.20
2023-04-11T23:45:27.770Z,1.30
2023-04-11T23:47:55.353Z,1.58
2023-04-11T23:50:22.781Z,1.08
2023-04-11T23:52:50.200Z,1.08
2023-04-11T23:55:17.551Z,1.10
2023-04-11T23:57:44.929Z,1.45
